Time;durP1;ratioP1;P1;durP2;ratioP2;P2;SDS_P1;SDS_P2;PMS_P1;PMS_P2;Temp;Humidity;BMP_temperature;BMP_pressure;BME280_temperature;BME280_humidity;BME280_pressure;Samples;Min_cycle;Max_cycle;Signal;HPM_P1;HPM_P2
2022/04/17 00:00:10;;;;;;;17.42;11.13;;;8.20;76.50;;;;;;4981633;28;20050;-72
2022/04/17 00:02:39;;;;;;;17.70;11.27;;;8.30;77.00;;;;;;4978721;28;20037;-71
2022/04/17 00:05:06;;;;;;;18.52;11.30;;;8.20;77.20;;;;;;4978658;28;20026;-72
2022/04/17 00:07:32;;;;;;;22.23;12.52;;;8.20;77.70;;;;;;4975363;28;20105;-72
2022/04/17 00:09:59;;;;;;;21.25;12.55;;;8.20;77.80;;;;;;4978106;28;20124;-72
2022/04/17 00:12:26;;;;;;;23.27;13.23;;;8.20;78.10;;;;;;4978668;28;20033;-72
2022/04/17 00:14:53;;;;;;;22.73;14.27;;;8.20;78.50;;;;;;4977188;28;20027;-71
2022/04/17 00:17:19;;;;;;;26.77;14.82;;;8.20;79.10;;;;;;4978031;28;20442;-72
2022/04/17 00:19:45;;;;;;;21.63;13.85;;;8.20;79.40;;;;;;4979041;28;20035;-72
2022/04/17 00:22:11;;;;;;;24.02;14.68;;;8.20;80.00;;;;;;4958404;28;20027;-74
2022/04/17 00:24:37;;;;;;;25.23;14.57;;;8.10;80.30;;;;;;4972477;28;20542;-73
2022/04/17 00:27:03;;;;;;;23.63;14.57;;;8.10;80.50;;;;;;4979260;28;20109;-72
2022/04/17 00:29:28;;;;;;;24.25;14.93;;;8.10;81.20;;;;;;4993233;22;20288;-75
2022/04/17 00:31:56;;;;;;;25.45;15.50;;;8.10;81.50;;;;;;4958960;28;20031;-70
2022/04/17 00:34:23;;;;;;;22.08;14.25;;;8.10;82.20;;;;;;4977684;28;20030;-72
2022/04/17 00:36:49;;;;;;;24.17;15.43;;;8.00;82.90;;;;;;4979231;28;20054;-73
2022/04/17 00:39:14;;;;;;;24.67;15.25;;;8.10;83.10;;;;;;4978202;28;20059;-74
2022/04/17 00:41:40;;;;;;;22.08;14.77;;;8.00;82.90;;;;;;4971235;28;20041;-74
2022/04/17 00:44:13;;;;;;;26.17;14.65;;;8.00;83.40;;;;;;4978036;28;20054;-74
2022/04/17 00:46:40;;;;;;;25.63;14.50;;;8.00;84.00;;;;;;4976133;28;20031;-74
2022/04/17 00:49:09;;;;;;;24.60;15.05;;;8.00;84.50;;;;;;4978285;28;20483;-73
2022/04/17 00:51:36;;;;;;;23.90;15.20;;;8.00;84.80;;;;;;4973558;28;20112;-74
2022/04/17 00:54:08;;;;;;;27.25;17.27;;;7.90;85.10;;;;;;4977712;28;20150;-73
2022/04/17 00:56:34;;;;;;;32.17;18.30;;;7.90;85.60;;;;;;4975060;28;20084;-72
2022/04/17 00:59:04;;;;;;;32.45;18.23;;;7.90;85.80;;;;;;4976402;28;20026;-74
2022/04/17 01:01:32;;;;;;;31.27;18.38;;;7.90;85.90;;;;;;4973711;28;20113;-73
2022/04/17 01:04:01;;;;;;;34.97;18.67;;;7.90;86.60;;;;;;4976944;28;20486;-73
2022/04/17 01:06:27;;;;;;;34.00;19.20;;;7.90;87.40;;;;;;4973648;28;20042;-74
2022/04/17 01:08:53;;;;;;;37.42;20.65;;;7.90;87.50;;;;;;4976923;28;20057;-75
2022/04/17 01:11:19;;;;;;;34.83;19.63;;;7.80;87.80;;;;;;4975134;28;20486;-76
2022/04/17 01:13:45;;;;;;;38.58;19.85;;;7.80;88.10;;;;;;4978299;28;20057;-75
2022/04/17 01:16:11;;;;;;;36.97;20.17;;;7.90;87.70;;;;;;4976849;28;20585;-73
2022/04/17 01:18:59;;;;;;;37.30;20.00;;;7.80;88.30;;;;;;4962152;28;20031;-75
2022/04/17 01:21:26;;;;;;;33.65;19.23;;;7.80;88.40;;;;;;4975606;28;20050;-75
2022/04/17 01:29:22;;;;;;;34.03;19.83;;;7.80;89.30;;;;;;4977054;28;20533;-75
2022/04/17 01:31:48;;;;;;;36.05;20.00;;;7.70;90.10;;;;;;4991231;28;20094;-74
2022/04/17 01:34:17;;;;;;;36.15;21.23;;;7.70;90.10;;;;;;4976032;28;20104;-74
2022/04/17 01:36:44;;;;;;;36.30;20.02;;;7.70;90.30;;;;;;4962112;28;20018;-76
2022/04/17 01:39:10;;;;;;;39.25;21.33;;;7.60;90.40;;;;;;4974748;28;20498;-75
2022/04/17 01:41:37;;;;;;;37.97;20.58;;;7.70;90.50;;;;;;4975513;28;20031;-75
2022/04/17 01:44:03;;;;;;;37.97;20.42;;;7.60;90.80;;;;;;4977629;28;20403;-75
2022/04/17 01:46:29;;;;;;;36.95;18.73;;;7.60;91.00;;;;;;4976767;28;20485;-76
2022/04/17 01:48:55;;;;;;;33.80;18.40;;;7.60;91.00;;;;;;4975695;28;20114;-74
2022/04/17 01:51:21;;;;;;;35.50;17.90;;;7.60;90.90;;;;;;4977575;28;20080;-76
2022/04/17 01:53:48;;;;;;;34.17;17.02;;;7.60;91.20;;;;;;4977120;28;20136;-74
2022/04/17 01:56:13;;;;;;;31.08;16.80;;;7.60;91.10;;;;;;4973651;28;20588;-74
2022/04/17 01:58:39;;;;;;;30.27;16.67;;;7.50;91.50;;;;;;4955857;28;20117;-75
2022/04/17 02:01:05;;;;;;;28.83;15.40;;;7.50;91.30;;;;;;4975640;28;20395;-75
2022/04/17 02:03:30;;;;;;;27.60;15.90;;;7.50;91.40;;;;;;4975032;28;20124;-75
2022/04/17 02:05:56;;;;;;;27.08;15.38;;;7.50;91.20;;;;;;4979905;28;20045;-74
2022/04/17 02:08:22;;;;;;;31.60;14.98;;;7.50;91.20;;;;;;4979008;28;20041;-74
2022/04/17 02:10:47;;;;;;;31.17;15.63;;;7.50;91.30;;;;;;4974571;28;20038;-75
2022/04/17 02:13:13;;;;;;;29.10;16.10;;;7.50;91.60;;;;;;4976837;28;20023;-73
2022/04/17 02:15:39;;;;;;;25.95;15.88;;;7.40;91.80;;;;;;4957967;28;20029;-73
2022/04/17 02:18:05;;;;;;;32.78;16.63;;;7.40;92.30;;;;;;4975724;28;20086;-73
2022/04/17 02:20:31;;;;;;;28.20;15.65;;;7.40;92.50;;;;;;4976308;28;20057;-72
2022/04/17 02:22:57;;;;;;;32.97;17.85;;;7.30;92.40;;;;;;4975489;28;20046;-71
2022/04/17 02:25:22;;;;;;;32.03;15.77;;;7.40;92.70;;;;;;4975780;28;20134;-73
2022/04/17 02:27:48;;;;;;;29.83;16.33;;;7.40;92.70;;;;;;4977525;28;20031;-75
2022/04/17 02:30:13;;;;;;;29.17;16.13;;;7.30;92.80;;;;;;4974419;28;20031;-73
2022/04/17 02:32:39;;;;;;;30.27;15.93;;;7.30;93.10;;;;;;4973068;28;20122;-74
2022/04/17 02:35:06;;;;;;;30.45;16.55;;;7.30;93.40;;;;;;4976069;28;20077;-73
2022/04/17 02:37:35;;;;;;;30.85;17.15;;;7.30;93.40;;;;;;4975908;28;20073;-73
2022/04/17 02:40:01;;;;;;;32.88;16.92;;;7.30;93.70;;;;;;4975510;28;20042;-75
2022/04/17 02:42:27;;;;;;;27.90;16.15;;;7.30;93.50;;;;;;4976905;28;20026;-74
2022/04/17 02:44:53;;;;;;;31.83;17.65;;;7.20;93.80;;;;;;4975550;28;20042;-74
2022/04/17 02:50:04;;;;;;;29.27;15.90;;;7.20;94.00;;;;;;4979452;28;20513;-73
2022/04/17 02:52:30;;;;;;;29.65;16.20;;;7.20;94.30;;;;;;4978554;28;20034;-74
2022/04/17 02:54:55;;;;;;;27.17;15.68;;;7.10;94.50;;;;;;4977917;28;20025;-74
2022/04/17 02:57:21;;;;;;;27.02;15.50;;;7.10;94.70;;;;;;4977115;28;20378;-72
2022/04/17 02:59:46;;;;;;;29.33;16.17;;;7.10;94.70;;;;;;4977906;28;20084;-75
2022/04/17 03:07:41;;;;;;;28.92;15.70;;;7.10;95.00;;;;;;4981059;28;20069;-73
2022/04/17 03:10:07;;;;;;;24.55;15.00;;;7.00;95.00;;;;;;4979992;28;20054;-74
2022/04/17 03:12:36;;;;;;;25.38;15.68;;;7.00;95.00;;;;;;4980790;28;20030;-72
2022/04/17 03:15:02;;;;;;;25.98;14.88;;;6.90;95.20;;;;;;4977305;28;20022;-73
2022/04/17 03:17:28;;;;;;;23.40;14.75;;;6.90;95.30;;;;;;4977371;28;20097;-76
2022/04/17 03:19:53;;;;;;;24.92;14.82;;;6.80;95.60;;;;;;4979392;28;20035;-72
2022/04/17 03:22:23;;;;;;;29.50;15.80;;;6.80;95.80;;;;;;4978483;28;20050;-75
2022/04/17 03:24:49;;;;;;;26.58;14.55;;;6.80;96.00;;;;;;4979630;28;20554;-75
2022/04/17 03:27:14;;;;;;;25.27;14.88;;;6.70;96.30;;;;;;4979638;28;20121;-71
2022/04/17 03:29:40;;;;;;;24.17;14.35;;;6.80;96.50;;;;;;4972673;28;20050;-73
2022/04/17 03:32:06;;;;;;;26.90;14.60;;;6.80;96.60;;;;;;4978220;28;20126;-73
2022/04/17 03:34:32;;;;;;;24.17;14.18;;;6.80;96.40;;;;;;4965165;28;20532;-73
2022/04/17 03:36:58;;;;;;;24.85;13.88;;;6.80;96.40;;;;;;4979028;28;20101;-75
2022/04/17 03:39:24;;;;;;;25.13;14.18;;;6.70;96.40;;;;;;4977483;28;20081;-74
2022/04/17 03:41:50;;;;;;;25.77;14.10;;;6.70;96.60;;;;;;4978860;28;20040;-76
2022/04/17 03:44:16;;;;;;;21.75;12.82;;;6.70;96.60;;;;;;4976546;28;20026;-73
2022/04/17 03:46:42;;;;;;;24.67;15.43;;;6.60;96.80;;;;;;4979943;28;20072;-72
2022/04/17 03:49:07;;;;;;;27.25;15.13;;;6.60;97.00;;;;;;4979304;28;20370;-74
2022/04/17 03:51:33;;;;;;;25.08;14.43;;;6.60;97.20;;;;;;4977746;28;20109;-76
2022/04/17 03:53:59;;;;;;;27.25;16.23;;;6.50;97.40;;;;;;4978649;28;20215;-76
2022/04/17 03:56:24;;;;;;;25.27;14.48;;;6.50;97.70;;;;;;4979127;28;20135;-73
2022/04/17 03:58:50;;;;;;;27.05;15.13;;;6.50;97.80;;;;;;4976191;28;20026;-74
2022/04/17 04:01:16;;;;;;;29.10;17.15;;;6.50;98.20;;;;;;4972909;28;20132;-74
2022/04/17 04:03:42;;;;;;;30.17;16.08;;;6.50;98.30;;;;;;4975424;28;20109;-74
2022/04/17 04:06:07;;;;;;;27.10;16.75;;;6.50;98.30;;;;;;4976796;28;20037;-74
2022/04/17 04:08:33;;;;;;;28.85;16.98;;;6.50;98.60;;;;;;4976914;28;20258;-75
2022/04/17 04:10:58;;;;;;;28.33;16.50;;;6.40;98.40;;;;;;4977397;28;20038;-73
2022/04/17 04:13:24;;;;;;;30.60;17.30;;;6.40;98.80;;;;;;4974391;28;20102;-73
2022/04/17 04:15:49;;;;;;;31.27;17.25;;;6.40;99.10;;;;;;4977886;28;20102;-74
2022/04/17 04:18:15;;;;;;;33.95;17.83;;;6.40;99.20;;;;;;4972566;28;20041;-75
2022/04/17 04:20:41;;;;;;;29.33;17.30;;;6.40;99.50;;;;;;4975732;28;20039;-75
2022/04/17 04:23:06;;;;;;;30.33;18.02;;;6.40;99.70;;;;;;4977722;28;20515;-74
2022/04/17 04:25:32;;;;;;;31.15;17.30;;;6.40;99.90;;;;;;4977998;28;20578;-74
2022/04/17 04:30:43;;;;;;;29.00;17.88;;;6.30;99.90;;;;;;4974582;28;20061;-75
2022/04/17 04:33:09;;;;;;;34.63;19.45;;;6.30;99.90;;;;;;4976874;28;20030;-76
2022/04/17 04:35:34;;;;;;;37.13;20.45;;;6.20;99.90;;;;;;4974588;28;20027;-75
2022/04/17 04:38:01;;;;;;;30.38;17.90;;;6.30;99.90;;;;;;4978377;28;20164;-74
2022/04/17 04:40:30;;;;;;;32.70;18.90;;;6.30;99.90;;;;;;4972326;28;20034;-75
2022/04/17 04:42:58;;;;;;;30.05;18.30;;;6.20;99.90;;;;;;4974668;28;20057;-75
2022/04/17 04:48:08;;;;;;;32.35;18.63;;;6.30;99.90;;;;;;4977604;28;20034;-74
2022/04/17 04:50:33;;;;;;;30.23;17.38;;;6.30;99.90;;;;;;4973714;28;20031;-73
2022/04/17 04:52:59;;;;;;;31.92;18.08;;;6.30;99.90;;;;;;4975454;28;20162;-73
2022/04/17 04:55:25;;;;;;;33.80;18.40;;;6.30;99.90;;;;;;4975273;28;20123;-72
2022/04/17 04:57:50;;;;;;;32.50;19.02;;;6.30;99.90;;;;;;4959092;28;20052;-73
2022/04/17 05:00:16;;;;;;;30.98;18.27;;;6.30;99.90;;;;;;4959312;28;20518;-73
2022/04/17 05:02:42;;;;;;;28.85;18.00;;;6.40;99.90;;;;;;4977513;28;20125;-73
2022/04/17 05:05:08;;;;;;;29.77;17.80;;;6.40;99.90;;;;;;4975497;28;20035;-75
2022/04/17 05:07:34;;;;;;;31.75;17.92;;;6.40;99.90;;;;;;4973799;28;20402;-74
2022/04/17 05:10:00;;;;;;;28.73;17.95;;;6.50;99.90;;;;;;4976492;28;20524;-74
2022/04/17 05:12:27;;;;;;;31.13;18.55;;;6.50;99.90;;;;;;4979394;28;20030;-76
2022/04/17 05:14:53;;;;;;;26.25;17.15;;;6.50;99.90;;;;;;4977043;28;20142;-73
2022/04/17 05:17:19;;;;;;;24.67;15.88;;;6.40;99.90;;;;;;4975519;28;20376;-74
2022/04/17 05:19:45;;;;;;;29.45;16.88;;;6.50;99.90;;;;;;4976270;28;20577;-73
2022/04/17 05:22:16;;;;;;;33.85;18.05;;;6.60;99.90;;;;;;4975991;28;20284;-73
2022/04/17 05:24:43;;;;;;;27.35;16.13;;;6.70;99.90;;;;;;4974636;28;20536;-74
2022/04/17 05:27:09;;;;;;;26.13;16.65;;;6.70;99.90;;;;;;4975370;28;20442;-73
2022/04/17 05:29:35;;;;;;;27.63;16.35;;;6.80;99.90;;;;;;4957213;28;20109;-72
2022/04/17 05:32:00;;;;;;;29.52;16.98;;;6.80;99.90;;;;;;4975336;28;20038;-72
2022/04/17 05:34:27;;;;;;;32.35;17.23;;;6.90;99.90;;;;;;4974992;28;20030;-73
2022/04/17 05:36:52;;;;;;;25.42;16.25;;;6.90;99.90;;;;;;4978137;28;20027;-73
2022/04/17 05:39:18;;;;;;;27.52;17.13;;;7.00;99.90;;;;;;4973114;28;20022;-74
2022/04/17 05:41:45;;;;;;;29.00;16.95;;;7.00;99.90;;;;;;4976145;28;20041;-74
2022/04/17 05:44:12;;;;;;;25.67;15.95;;;7.10;99.90;;;;;;4975762;28;20043;-73
2022/04/17 05:46:41;;;;;;;25.95;15.02;;;7.10;99.90;;;;;;4979265;28;20116;-73
2022/04/17 05:49:07;;;;;;;28.10;16.65;;;7.30;99.90;;;;;;4975900;28;20667;-73
2022/04/17 05:51:34;;;;;;;27.10;16.13;;;7.40;99.90;;;;;;4975537;28;20038;-73
2022/04/17 05:54:01;;;;;;;27.85;15.95;;;7.40;99.90;;;;;;4977023;28;20304;-73
2022/04/17 05:56:27;;;;;;;25.73;14.32;;;7.40;99.90;;;;;;4972156;28;20023;-73
2022/04/17 05:58:53;;;;;;;23.75;13.25;;;7.50;99.80;;;;;;4977195;28;20026;-74
2022/04/17 06:01:19;;;;;;;20.30;13.15;;;7.50;99.60;;;;;;4975077;28;20030;-73
2022/04/17 06:03:45;;;;;;;22.63;13.23;;;7.50;99.30;;;;;;4959116;28;20028;-73
2022/04/17 06:06:10;;;;;;;22.92;12.18;;;7.50;98.70;;;;;;4967100;28;20502;-73
2022/04/17 06:08:36;;;;;;;21.52;13.05;;;7.60;98.60;;;;;;4973315;28;20529;-74
2022/04/17 06:11:02;;;;;;;19.73;13.10;;;7.60;98.40;;;;;;4972927;28;20030;-73
2022/04/17 06:13:28;;;;;;;21.73;12.98;;;7.70;97.40;;;;;;4974167;28;20070;-73
2022/04/17 06:15:54;;;;;;;23.75;13.32;;;7.70;96.70;;;;;;4974618;28;20242;-74
2022/04/17 06:18:20;;;;;;;21.10;13.68;;;7.70;96.30;;;;;;4975657;28;20018;-75
2022/04/17 06:20:45;;;;;;;24.48;13.57;;;7.80;95.70;;;;;;4958107;28;20035;-75
2022/04/17 06:23:11;;;;;;;25.40;14.32;;;7.80;95.50;;;;;;4977815;28;20506;-74
2022/04/17 06:25:36;;;;;;;20.83;11.75;;;7.80;95.00;;;;;;4976137;28;20050;-74
2022/04/17 06:28:02;;;;;;;18.50;11.15;;;7.80;94.30;;;;;;4977986;28;20042;-75
2022/04/17 06:30:28;;;;;;;16.60;10.57;;;7.80;93.80;;;;;;4994016;22;20066;-73
2022/04/17 06:32:54;;;;;;;20.50;11.32;;;7.80;93.60;;;;;;4987437;28;20034;-73
2022/04/17 06:35:19;;;;;;;20.65;10.82;;;7.90;92.80;;;;;;4974759;28;20031;-73
2022/04/17 06:37:53;;;;;;;16.60;10.20;;;8.00;92.50;;;;;;4963238;28;20055;-74
2022/04/17 06:40:23;;;;;;;20.00;11.43;;;8.00;92.20;;;;;;4980725;28;20073;-73
2022/04/17 06:42:51;;;;;;;14.48;9.73;;;8.10;91.50;;;;;;4981455;28;20228;-73
2022/04/17 06:45:18;;;;;;;18.85;9.70;;;8.10;91.40;;;;;;4978863;28;20639;-72
2022/04/17 06:47:44;;;;;;;19.42;9.27;;;8.20;90.80;;;;;;4979939;28;20062;-75
2022/04/17 06:50:11;;;;;;;17.17;9.32;;;8.20;90.60;;;;;;4979940;28;20030;-76
2022/04/17 06:52:37;;;;;;;16.13;9.15;;;8.30;90.30;;;;;;4976257;28;20074;-72
2022/04/17 06:55:05;;;;;;;16.00;9.07;;;8.40;90.00;;;;;;4978496;28;20390;-72
2022/04/17 06:57:32;;;;;;;16.17;8.50;;;8.40;87.50;;;;;;4987006;28;20058;-72
2022/04/17 06:59:58;;;;;;;13.77;7.90;;;8.50;85.70;;;;;;4982712;28;20030;-71
2022/04/17 07:02:24;;;;;;;17.25;9.38;;;8.50;83.50;;;;;;4978661;28;20039;-72
2022/04/17 07:04:51;;;;;;;15.52;8.55;;;8.50;83.30;;;;;;4976176;28;20644;-72
2022/04/17 07:07:16;;;;;;;18.95;9.23;;;8.50;82.40;;;;;;4977627;28;20494;-71
2022/04/17 07:09:42;;;;;;;15.63;8.70;;;8.50;82.10;;;;;;4977147;28;20038;-72
2022/04/17 07:12:08;;;;;;;15.85;8.73;;;8.50;82.10;;;;;;4978156;28;20055;-72
2022/04/17 07:14:33;;;;;;;21.48;10.07;;;8.50;82.90;;;;;;4977875;28;20046;-72
2022/04/17 07:16:59;;;;;;;18.35;9.70;;;8.60;82.30;;;;;;4977013;28;20490;-72
2022/04/17 07:19:24;;;;;;;15.32;9.23;;;8.70;84.60;;;;;;4979118;28;20019;-73
2022/04/17 07:21:50;;;;;;;18.15;9.50;;;8.80;82.50;;;;;;4962469;28;20181;-72
2022/04/17 07:24:16;;;;;;;18.02;9.77;;;8.80;81.90;;;;;;4979737;28;20076;-73
2022/04/17 07:26:42;;;;;;;16.38;8.63;;;8.80;81.30;;;;;;4979048;28;20038;-73
2022/04/17 07:29:08;;;;;;;13.10;8.10;;;8.90;80.00;;;;;;4976389;28;21644;-74
2022/04/17 07:31:34;;;;;;;17.02;8.55;;;8.90;78.00;;;;;;4980471;28;20034;-73
2022/04/17 07:34:00;;;;;;;14.23;8.38;;;8.90;77.50;;;;;;4979163;28;20035;-74
2022/04/17 07:36:25;;;;;;;14.63;8.27;;;8.90;78.90;;;;;;4977852;28;20642;-74
2022/04/17 07:38:52;;;;;;;15.82;8.68;;;9.00;77.40;;;;;;4977386;28;20410;-74
2022/04/17 07:41:17;;;;;;;16.83;8.93;;;9.00;77.60;;;;;;4977638;28;20032;-74
2022/04/17 07:43:43;;;;;;;17.15;9.90;;;9.20;83.40;;;;;;4970188;28;20042;-76
2022/04/17 07:46:09;;;;;;;16.98;9.27;;;9.40;76.00;;;;;;4974354;28;20029;-73
2022/04/17 07:48:34;;;;;;;18.65;10.60;;;9.40;75.30;;;;;;4975189;28;20023;-73
2022/04/17 07:51:01;;;;;;;16.60;10.13;;;9.40;73.60;;;;;;4967862;28;20100;-74
2022/04/17 07:53:26;;;;;;;15.57;10.07;;;9.40;73.30;;;;;;4956850;28;20031;-73
2022/04/17 07:55:52;;;;;;;15.27;9.27;;;9.30;72.80;;;;;;4965019;28;20462;-73
2022/04/17 07:58:39;;;;;;;13.70;8.88;;;9.30;73.30;;;;;;4965810;28;20023;-74
2022/04/17 08:01:14;;;;;;;17.63;7.90;;;9.40;72.00;;;;;;4974069;28;20039;-74
2022/04/17 08:06:06;;;;;;;13.88;7.47;;;9.50;70.00;;;;;;4973429;28;20158;-73
2022/04/17 08:08:32;;;;;;;11.32;7.32;;;9.50;70.00;;;;;;4957462;28;20023;-73
2022/04/17 08:10:59;;;;;;;12.68;6.72;;;9.60;69.60;;;;;;4969419;28;20027;-73
2022/04/17 08:13:24;;;;;;;11.60;6.28;;;9.60;68.30;;;;;;4974275;28;20070;-73
2022/04/17 08:15:50;;;;;;;8.35;5.32;;;9.50;68.70;;;;;;4980129;28;20034;-74
2022/04/17 08:18:16;;;;;;;10.95;4.95;;;9.50;68.00;;;;;;4976375;28;20102;-75
2022/04/17 08:20:42;;;;;;;6.95;4.68;;;9.60;66.90;;;;;;4979077;28;20037;-75
2022/04/17 08:23:08;;;;;;;6.20;4.18;;;9.60;66.10;;;;;;4981782;28;20061;-76
2022/04/17 08:25:35;;;;;;;7.18;4.28;;;9.70;65.10;;;;;;4979129;28;20064;-77
2022/04/17 08:28:04;;;;;;;6.68;3.63;;;9.80;64.20;;;;;;4970834;28;20522;-78
2022/04/17 08:30:31;;;;;;;6.50;3.58;;;9.80;63.90;;;;;;4972615;28;20034;-77
2022/04/17 08:33:02;;;;;;;6.75;3.53;;;9.90;62.90;;;;;;4977965;28;20050;-75
2022/04/17 08:35:28;;;;;;;5.40;3.17;;;9.90;62.70;;;;;;4976388;28;20065;-78
2022/04/17 08:37:57;;;;;;;4.22;2.67;;;10.00;61.90;;;;;;4974373;28;20058;-76
2022/04/17 08:40:26;;;;;;;4.78;3.00;;;10.00;61.60;;;;;;4976080;28;20109;-74
2022/04/17 08:42:53;;;;;;;5.00;3.00;;;10.10;60.00;;;;;;4991499;28;20941;-75
2022/04/17 08:45:19;;;;;;;7.38;3.38;;;10.20;60.10;;;;;;4972317;28;20101;-76
2022/04/17 08:47:45;;;;;;;4.70;2.80;;;10.20;60.50;;;;;;4971917;28;20494;-76
2022/04/17 08:50:13;;;;;;;6.85;3.60;;;10.20;60.60;;;;;;4969321;28;20050;-77
2022/04/17 08:52:44;;;;;;;5.63;3.10;;;10.30;59.80;;;;;;4974250;28;20030;-72
2022/04/17 08:55:10;;;;;;;6.97;3.93;;;10.40;58.20;;;;;;4976335;28;20035;-73
2022/04/17 08:57:36;;;;;;;9.38;3.47;;;10.40;58.90;;;;;;4972618;28;20511;-73
2022/04/17 09:00:08;;;;;;;4.72;2.78;;;10.50;58.90;;;;;;4976635;28;20030;-74
2022/04/17 09:02:38;;;;;;;7.35;3.53;;;10.50;58.70;;;;;;4970629;28;20018;-74
2022/04/17 09:05:08;;;;;;;7.70;3.75;;;10.60;59.20;;;;;;4955934;28;20074;-75
2022/04/17 09:07:47;;;;;;;5.47;2.95;;;10.60;57.70;;;;;;4970514;28;20510;-76
2022/04/17 09:10:33;;;;;;;4.10;2.78;;;10.70;59.20;;;;;;4959216;28;20097;-75
2022/04/17 09:13:01;;;;;;;6.20;3.20;;;10.70;58.60;;;;;;4978023;28;20454;-74
2022/04/17 09:15:36;;;;;;;6.28;3.30;;;10.80;57.20;;;;;;4956775;28;20109;-75
2022/04/17 09:18:07;;;;;;;4.97;2.97;;;10.90;57.40;;;;;;4972887;28;20130;-75
2022/04/17 09:20:33;;;;;;;4.20;2.67;;;10.80;58.10;;;;;;4964561;28;20027;-74
2022/04/17 09:23:00;;;;;;;5.10;2.83;;;10.90;58.40;;;;;;4970438;28;20422;-74
2022/04/17 09:25:26;;;;;;;6.32;3.20;;;11.00;57.80;;;;;;4953826;28;20030;-75
2022/04/17 09:27:56;;;;;;;6.55;2.92;;;11.10;58.00;;;;;;4954072;28;20030;-73
2022/04/17 09:30:33;;;;;;;5.35;3.13;;;11.10;58.00;;;;;;4975001;28;20394;-74
2022/04/17 09:33:02;;;;;;;5.45;2.67;;;11.20;57.90;;;;;;4959297;28;20022;-76
2022/04/17 09:35:28;;;;;;;4.28;2.72;;;11.20;57.80;;;;;;4974806;28;20023;-74
2022/04/17 09:37:56;;;;;;;5.97;2.60;;;11.30;58.00;;;;;;4973455;28;20073;-74
2022/04/17 09:40:22;;;;;;;4.70;2.85;;;11.40;57.30;;;;;;4977543;28;20037;-74
2022/04/17 09:42:48;;;;;;;5.13;2.58;;;11.50;56.90;;;;;;4975260;28;20030;-74
2022/04/17 09:45:14;;;;;;;4.78;2.58;;;11.50;55.80;;;;;;4971373;28;20034;-74
2022/04/17 09:47:40;;;;;;;5.10;2.40;;;11.50;56.80;;;;;;4978635;28;20134;-75
2022/04/17 09:50:08;;;;;;;4.55;2.05;;;11.60;54.30;;;;;;4974426;28;20122;-74
2022/04/17 09:52:43;;;;;;;3.45;2.10;;;11.60;55.40;;;;;;4976549;28;20569;-74
2022/04/17 09:55:09;;;;;;;3.95;2.45;;;11.70;55.00;;;;;;4972824;28;20097;-74
2022/04/17 09:57:40;;;;;;;3.40;2.42;;;11.70;56.00;;;;;;4976136;28;20066;-74
2022/04/17 10:00:14;;;;;;;4.85;2.22;;;11.80;55.80;;;;;;4979477;28;20041;-78
2022/04/17 10:02:42;;;;;;;4.35;2.45;;;11.80;54.90;;;;;;4972855;28;20026;-74
2022/04/17 10:05:10;;;;;;;3.95;2.40;;;11.80;54.90;;;;;;4977603;28;20034;-74
2022/04/17 10:07:40;;;;;;;5.50;2.58;;;11.90;54.90;;;;;;4974856;28;20039;-74
2022/04/17 10:10:07;;;;;;;3.80;1.98;;;11.90;55.20;;;;;;4969314;28;20046;-74
2022/04/17 10:12:37;;;;;;;4.75;2.15;;;12.00;55.00;;;;;;4974522;28;20560;-76
2022/04/17 10:15:07;;;;;;;3.67;2.10;;;12.10;54.40;;;;;;4977975;28;20035;-74
2022/04/17 10:17:44;;;;;;;4.57;1.92;;;12.10;53.40;;;;;;4978295;28;20097;-75
2022/04/17 10:20:12;;;;;;;4.20;2.47;;;12.20;50.80;;;;;;4970560;28;20022;-74
2022/04/17 10:22:39;;;;;;;2.63;1.60;;;12.30;50.00;;;;;;4958114;28;20034;-73
2022/04/17 10:25:07;;;;;;;2.85;1.60;;;12.30;51.30;;;;;;4972483;28;20193;-74
2022/04/17 10:27:44;;;;;;;3.45;1.83;;;12.40;52.10;;;;;;4968907;28;20035;-74
2022/04/17 10:30:21;;;;;;;4.68;2.47;;;12.40;53.40;;;;;;4964734;28;20078;-75
2022/04/17 10:33:04;;;;;;;5.30;2.55;;;12.60;51.00;;;;;;4968732;28;20031;-75
2022/04/17 10:36:02;;;;;;;4.57;2.20;;;12.60;50.00;;;;;;4972460;28;20677;-74
2022/04/17 10:38:45;;;;;;;3.85;1.75;;;12.70;51.50;;;;;;4960163;28;20832;-74
2022/04/17 10:41:14;;;;;;;5.22;1.70;;;12.70;51.20;;;;;;4966464;28;20038;-74
2022/04/17 10:43:43;;;;;;;2.67;1.60;;;12.80;50.90;;;;;;4961925;28;20059;-75
2022/04/17 10:46:16;;;;;;;2.33;1.40;;;12.80;50.10;;;;;;4949999;28;20682;-74
2022/04/17 10:48:47;;;;;;;3.08;1.83;;;12.80;49.10;;;;;;4962670;28;20137;-76
2022/04/17 10:51:20;;;;;;;4.03;1.83;;;12.90;47.90;;;;;;4961929;28;20077;-76
2022/04/17 10:54:07;;;;;;;4.57;1.95;;;12.90;48.20;;;;;;4983746;28;20028;-75
2022/04/17 10:57:05;;;;;;;6.85;1.90;;;13.00;48.80;;;;;;4957941;28;20476;-76
2022/04/17 10:59:33;;;;;;;5.78;2.03;;;13.10;49.00;;;;;;4955610;28;20039;-77
2022/04/17 11:02:08;;;;;;;7.78;2.83;;;13.20;47.20;;;;;;4966191;28;20457;-74
2022/04/17 11:04:40;;;;;;;10.07;4.22;;;13.40;49.40;;;;;;4972082;28;20050;-73
2022/04/17 11:07:06;;;;;;;23.92;7.85;;;13.80;48.70;;;;;;4963620;28;20038;-73
2022/04/17 11:09:33;;;;;;;32.92;11.43;;;14.80;46.90;;;;;;4969656;28;20037;-74
2022/04/17 11:12:17;;;;;;;52.17;16.75;;;16.50;48.60;;;;;;4971759;28;20037;-74
2022/04/17 11:15:01;;;;;;;7.40;4.00;;;19.10;45.60;;;;;;4985951;28;20639;-74
2022/04/17 11:17:28;;;;;;;16.20;8.40;;;21.40;36.90;;;;;;4974833;28;20026;-74
2022/04/17 11:19:59;;;;;;;16.33;5.43;;;23.10;34.20;;;;;;4968603;28;20113;-73
2022/04/17 11:22:34;;;;;;;5.63;2.42;;;24.70;30.40;;;;;;4985598;28;20038;-73
2022/04/17 11:25:02;;;;;;;7.45;2.35;;;26.30;31.20;;;;;;4967713;28;20034;-72
2022/04/17 11:27:57;;;;;;;2.95;1.45;;;27.20;30.10;;;;;;4970482;28;20027;-72
2022/04/17 11:30:23;;;;;;;2.63;1.52;;;28.60;28.80;;;;;;4971535;28;20027;-72
2022/04/17 11:32:51;;;;;;;2.50;1.60;;;29.30;27.50;;;;;;4968568;28;20505;-71
2022/04/17 11:35:27;;;;;;;3.30;1.58;;;29.40;27.40;;;;;;4970915;28;20031;-72
2022/04/17 11:38:14;;;;;;;2.88;1.83;;;29.20;27.10;;;;;;4967969;28;20081;-71
2022/04/17 11:40:44;;;;;;;2.63;1.70;;;28.50;25.00;;;;;;4985078;28;20038;-72
2022/04/17 11:43:15;;;;;;;2.78;1.80;;;27.30;26.30;;;;;;4971387;28;20435;-70
2022/04/17 11:45:42;;;;;;;2.00;1.63;;;26.40;27.60;;;;;;4970991;28;20101;-71
2022/04/17 11:48:13;;;;;;;3.00;1.65;;;25.40;28.40;;;;;;4972934;28;20033;-71
2022/04/17 11:50:40;;;;;;;3.22;1.95;;;24.90;30.10;;;;;;4966542;28;20039;-73
2022/04/17 11:53:13;;;;;;;2.70;1.58;;;24.30;30.30;;;;;;4969666;28;20106;-73
2022/04/17 11:55:49;;;;;;;5.97;3.00;;;23.70;30.90;;;;;;4968792;28;21909;-71
2022/04/17 11:58:26;;;;;;;3.13;1.75;;;23.20;32.10;;;;;;4963452;28;20035;-72
2022/04/17 12:00:57;;;;;;;2.63;1.58;;;23.00;32.30;;;;;;4973934;28;20065;-72
2022/04/17 12:03:34;;;;;;;2.63;1.35;;;22.90;31.10;;;;;;4969092;28;20367;-72
2022/04/17 12:06:01;;;;;;;2.60;1.48;;;23.00;29.80;;;;;;4968254;28;20046;-72
2022/04/17 12:08:36;;;;;;;24.92;16.85;;;23.00;29.60;;;;;;4964963;28;20027;-73
2022/04/17 12:11:06;;;;;;;2.25;1.88;;;23.30;32.70;;;;;;4970022;28;20393;-74
2022/04/17 12:13:31;;;;;;;38.22;34.38;;;23.30;30.70;;;;;;4955560;28;20091;-74
2022/04/17 12:16:02;;;;;;;5.05;3.58;;;23.30;30.00;;;;;;4975703;28;20134;-74
2022/04/17 12:18:29;;;;;;;2.70;1.50;;;23.30;30.00;;;;;;4972471;28;20027;-74
2022/04/17 12:20:55;;;;;;;3.67;1.80;;;23.50;29.40;;;;;;4975157;28;20030;-75
2022/04/17 12:23:23;;;;;;;2.70;1.73;;;23.80;27.90;;;;;;4971258;28;20509;-75
2022/04/17 12:25:49;;;;;;;3.60;2.03;;;23.80;28.70;;;;;;4969105;28;20037;-74
2022/04/17 12:28:14;;;;;;;2.80;1.40;;;24.00;29.60;;;;;;4970513;28;20022;-74
2022/04/17 12:30:41;;;;;;;3.47;1.40;;;24.30;29.90;;;;;;4975015;22;20043;-75
2022/04/17 12:33:28;;;;;;;1.70;1.20;;;24.70;29.80;;;;;;4966295;28;20023;-73
2022/04/17 12:36:07;;;;;;;2.72;1.42;;;25.20;28.60;;;;;;4950903;28;20026;-74
2022/04/17 12:38:34;;;;;;;2.58;1.73;;;25.30;27.70;;;;;;4953379;28;20521;-75
2022/04/17 12:41:00;;;;;;;2.97;1.45;;;25.50;27.40;;;;;;4931176;29;20479;-75
2022/04/17 12:43:30;;;;;;;2.72;1.17;;;25.80;26.90;;;;;;4951850;29;20027;-74
2022/04/17 12:46:04;;;;;;;3.15;1.58;;;26.60;27.40;;;;;;4951830;28;20435;-74
2022/04/17 12:48:33;;;;;;;3.97;1.67;;;27.30;26.00;;;;;;4955373;28;20023;-75
2022/04/17 12:51:09;;;;;;;2.10;1.05;;;27.90;25.30;;;;;;4942908;28;20081;-76
2022/04/17 12:53:42;;;;;;;1.95;1.10;;;27.90;26.10;;;;;;4962404;28;20136;-72
2022/04/17 12:56:10;;;;;;;3.75;1.30;;;28.40;26.90;;;;;;4929522;28;20526;-74
2022/04/17 12:58:50;;;;;;;2.45;1.30;;;28.80;27.50;;;;;;4948061;28;20158;-76
2022/04/17 13:01:27;;;;;;;2.47;1.23;;;29.40;27.10;;;;;;4961301;28;20031;-75
2022/04/17 13:04:16;;;;;;;2.05;1.30;;;29.50;25.30;;;;;;4948015;28;20027;-75
2022/04/17 13:06:43;;;;;;;1.83;1.20;;;29.80;25.20;;;;;;4946628;28;20046;-75